Ann Brent — WDC2596 — position and weather

sailwx.info

Track history (hours):
 
Tides and Currents Weather Stations Pressure Air Temp Water Temp Dewpoint Dewpoint Depression Visibility Wind Speed Wind Dir Waves Ship Positions

Ann Brent

Owner: Kirby Inland Marine LP, Houston, TX. More information available from US FCC via Universal Licensing System and Coast Guard Vessel Documentation Center.

Last reported at 2018-Jun-04 17:53 UTC. Time now 2018-Jun-17 22:15 UTC.
Position N 32°38' W 091°09'.
Warning: this ship's position is 13 days out of date.

Length 319 m; draft 2.5 m.

Type: . MMSI: 366995410.

Date/timePositionNaut miles runAvg speedWind from/ knotsBaromVisibWave heightAir tempDewpointWater temp
2018-Jun-04 17:53N 32°38' W 091°09'2 4.2
2018-Jun-04 17:30N 32°36' W 091°09'0 0.8
2018-Jun-04 17:00N 32°36' W 091°09'2 4.2
2018-Jun-04 16:30N 32°35' W 091°07'3 5.2
2018-Jun-04 16:00N 32°32' W 091°06'3 6.0
2018-Jun-04 15:30N 32°29' W 091°07'3 5.8
2018-Jun-04 15:00N 32°27' W 091°05'3 5.8
2018-Jun-04 14:30N 32°26' W 091°02'3 5.2
2018-Jun-04 14:00N 32°24' W 090°60'3 5.8
2018-Jun-04 13:30N 32°21' W 091°00'2 4.2
2018-Jun-04 13:00N 32°21' W 090°58'1 2.5
2018-Jun-04 12:30N 32°21' W 090°56'2 4.5
2018-Jun-04 12:00N 32°20' W 090°54'3 5.4
2018-Jun-04 11:30N 32°18' W 090°56'3 5.7
2018-Jun-04 11:00N 32°15' W 090°58'2 4.2
2018-Jun-04 10:30N 32°14' W 090°59'3 5.0
2018-Jun-04 10:00N 32°11' W 090°60'3 5.5
2018-Jun-04 09:30N 32°08' W 091°00'2 4.8
2018-Jun-04 09:00N 32°07' W 091°03'3 5.8
2018-Jun-04 08:30N 32°08' W 091°06'5 3.9
2018-Jun-04 07:17N 32°04' W 091°03'2 5.9
2018-Jun-04 07:00N 32°02' W 091°04'7 5.4
2018-Jun-04 05:43N 31°58' W 091°11'1 5.4
2018-Jun-04 05:30N 31°57' W 091°11'4 6.0
2018-Jun-04 04:48N 31°53' W 091°13'2 5.7
2018-Jun-04 04:27N 31°52' W 091°15'4 5.5
2018-Jun-04 03:41N 31°51' W 091°20'1 5.6
2018-Jun-04 03:30N 31°51' W 091°21'  
Track history (hours):
 
Tides and Currents Weather Stations Pressure Air Temp Water Temp Dewpoint Dewpoint Depression Visibility Wind Speed Wind Dir Waves Ship Positions

Ann Brent

Owner: Kirby Inland Marine LP, Houston, TX. More information available from US FCC via Universal Licensing System and Coast Guard Vessel Documentation Center.

Last reported at 2018-Jun-04 17:53 UTC. Time now 2018-Jun-17 22:16 UTC.
Position N 32°38' W 091°09'.
Warning: this ship's position is 13 days out of date.

Length 319 m; draft 2.5 m.

Type: . MMSI: 366995410.

Date/timePositionNaut miles runAvg speedWind from/ knotsBaromVisibWave heightAir tempDewpointWater temp
2018-Jun-04 17:53N 32°38' W 091°09'2 4.2
2018-Jun-04 17:30N 32°36' W 091°09'0 0.8
2018-Jun-04 17:00N 32°36' W 091°09'2 4.2
2018-Jun-04 16:30N 32°35' W 091°07'3 5.2
2018-Jun-04 16:00N 32°32' W 091°06'3 6.0
2018-Jun-04 15:30N 32°29' W 091°07'3 5.8
2018-Jun-04 15:00N 32°27' W 091°05'3 5.8
2018-Jun-04 14:30N 32°26' W 091°02'3 5.2
2018-Jun-04 14:00N 32°24' W 090°60'3 5.8
2018-Jun-04 13:30N 32°21' W 091°00'2 4.2
2018-Jun-04 13:00N 32°21' W 090°58'1 2.5
2018-Jun-04 12:30N 32°21' W 090°56'2 4.5
2018-Jun-04 12:00N 32°20' W 090°54'3 5.4
2018-Jun-04 11:30N 32°18' W 090°56'3 5.7
2018-Jun-04 11:00N 32°15' W 090°58'2 4.2
2018-Jun-04 10:30N 32°14' W 090°59'3 5.0
2018-Jun-04 10:00N 32°11' W 090°60'3 5.5
2018-Jun-04 09:30N 32°08' W 091°00'2 4.8
2018-Jun-04 09:00N 32°07' W 091°03'3 5.8
2018-Jun-04 08:30N 32°08' W 091°06'5 3.9
2018-Jun-04 07:17N 32°04' W 091°03'2 5.9
2018-Jun-04 07:00N 32°02' W 091°04'7 5.4
2018-Jun-04 05:43N 31°58' W 091°11'1 5.4
2018-Jun-04 05:30N 31°57' W 091°11'4 6.0
2018-Jun-04 04:48N 31°53' W 091°13'2 5.7
2018-Jun-04 04:27N 31°52' W 091°15'4 5.5
2018-Jun-04 03:41N 31°51' W 091°20'1 5.6
2018-Jun-04 03:30N 31°51' W 091°21'  

Dump ship's entire track history